Biotrans — JWPN — position and weather

sailwx.info

Track history (hours):
 
Tides and Currents Weather Stations Pressure Air Temp Water Temp Dewpoint Dewpoint Depression Visibility Wind Speed Wind Dir Waves Ship Positions

Biotrans

Last reported at 2017-Jun-26 00:29 UTC. Time now 2017-Jun-26 00:38 UTC.
Position N 62°50' E 006°58'.

Length 55 m; draft 5.5 m.

Type: Cargo ship. MMSI: 259260000.

Date/timePositionNaut miles runAvg speedWind from/ knotsBaromVisibWave heightAir tempDewpointWater temp
2017-Jun-26 00:29N 62°50' E 006°58'0 0.0
2017-Jun-26 00:00N 62°50' E 006°58'0 0.0
2017-Jun-25 23:30N 62°50' E 006°58'0 0.0
2017-Jun-25 23:00N 62°50' E 006°58'0 0.0
2017-Jun-25 22:30N 62°50' E 006°58'0 0.4
2017-Jun-25 22:00N 62°50' E 006°58'0 0.0
2017-Jun-25 21:30N 62°50' E 006°58'0 0.1
2017-Jun-25 21:00N 62°50' E 006°58'0 0.0
2017-Jun-25 20:30N 62°50' E 006°58'0 0.0
2017-Jun-25 20:00N 62°50' E 006°58'0 0.0
2017-Jun-25 19:30N 62°50' E 006°58'2 3.9
2017-Jun-25 19:00N 62°52' E 006°57'5 9.5
2017-Jun-25 18:30N 62°56' E 006°51'4 8.7
2017-Jun-25 18:00N 62°59' E 006°57'5 9.6
2017-Jun-25 17:30N 63°01' E 007°07'5 9.7
2017-Jun-25 17:00N 63°03' E 007°17'5 9.6
2017-Jun-25 16:30N 63°05' E 007°27'5 9.9
2017-Jun-25 16:00N 63°08' E 007°35'510.0
2017-Jun-25 15:30N 63°10' E 007°45'5 9.9
2017-Jun-25 15:00N 63°13' E 007°54'1010.3
2017-Jun-25 14:00N 63°18' E 008°14'510.0
2017-Jun-25 13:30N 63°21' E 008°22'5 9.9
2017-Jun-25 13:00N 63°24' E 008°32'5 9.8
2017-Jun-25 12:30N 63°26' E 008°42'5 9.6
2017-Jun-25 12:00N 63°28' E 008°52'5 9.1
2017-Jun-25 11:30N 63°29' E 009°01'4 8.4
2017-Jun-25 10:59N 63°31' E 009°10'4 8.4
2017-Jun-25 10:30N 63°33' E 009°18'5 9.4
2017-Jun-25 10:01N 63°36' E 009°26'5 9.8
2017-Jun-25 09:30N 63°41' E 009°29'510.0
2017-Jun-25 09:00N 63°46' E 009°32'5 9.2
2017-Jun-25 08:30N 63°50' E 009°37'5 9.1
2017-Jun-25 08:00N 63°53' E 009°45'4 7.5
2017-Jun-25 07:30N 63°54' E 009°53'1 1.8
2017-Jun-25 07:00N 63°53' E 009°52'0 0.0
2017-Jun-25 06:30N 63°53' E 009°52'0 0.0
2017-Jun-25 06:00N 63°53' E 009°52'0 0.0
2017-Jun-25 05:30N 63°53' E 009°52'0 0.0
2017-Jun-25 05:00N 63°53' E 009°52'0 0.0
2017-Jun-25 04:30N 63°53' E 009°52'0 0.0
2017-Jun-25 04:00N 63°53' E 009°52'0 0.0
2017-Jun-25 03:30N 63°53' E 009°52'0 0.0
2017-Jun-25 03:00N 63°53' E 009°52'0 0.0
2017-Jun-25 02:30N 63°53' E 009°52'0 0.0
2017-Jun-25 02:00N 63°53' E 009°52'0 0.1
2017-Jun-25 01:30N 63°53' E 009°52'1 3.0
2017-Jun-25 01:00N 63°53' E 009°49'4 8.9
2017-Jun-25 00:29N 63°51' E 009°40'5 9.7
2017-Jun-25 00:00N 63°47' E 009°34'3 6.7
2017-Jun-24 23:30N 63°45' E 009°39'3 6.5
2017-Jun-24 23:00N 63°46' E 009°46'0 0.0
2017-Jun-24 22:30N 63°46' E 009°46'0 0.0
2017-Jun-24 22:00N 63°46' E 009°46'0 0.0
2017-Jun-24 21:30N 63°46' E 009°46'0 0.0
2017-Jun-24 21:00N 63°46' E 009°46'0 0.0
2017-Jun-24 20:30N 63°46' E 009°46'0 0.0
2017-Jun-24 20:00N 63°46' E 009°46'0 0.0
2017-Jun-24 19:30N 63°46' E 009°46'2 4.0
2017-Jun-24 19:00N 63°45' E 009°41'4 7.6
2017-Jun-24 18:30N 63°47' E 009°33'5 9.9
2017-Jun-24 18:00N 63°51' E 009°39'5 9.9
2017-Jun-24 17:30N 63°54' E 009°46'5 9.9
2017-Jun-24 17:00N 63°59' E 009°47'5 9.7
2017-Jun-24 16:30N 64°04' E 009°48'5 9.5
2017-Jun-24 16:00N 64°09' E 009°51'5 9.6
2017-Jun-24 15:29N 64°13' E 009°57'5 9.6
2017-Jun-24 15:00N 64°17' E 010°03'10 9.6
2017-Jun-24 14:00N 64°25' E 010°16'5 9.3
2017-Jun-24 13:30N 64°28' E 010°22'5 9.4
2017-Jun-24 13:00N 64°32' E 010°29'5 9.9
2017-Jun-24 12:30N 64°36' E 010°37'510.1
2017-Jun-24 12:00N 64°39' E 010°45'510.0
2017-Jun-24 11:30N 64°43' E 010°54'510.2
2017-Jun-24 11:00N 64°46' E 011°03'5 9.8
2017-Jun-24 10:30N 64°50' E 011°10'4 8.7
2017-Jun-24 10:00N 64°53' E 011°18'5 9.1
2017-Jun-24 09:30N 64°56' E 011°26'510.1
2017-Jun-24 09:00N 64°59' E 011°35'5 9.2
2017-Jun-24 08:30N 65°02' E 011°43'5 9.1
2017-Jun-24 08:00N 65°06' E 011°48'5 9.6
2017-Jun-24 07:30N 65°11' E 011°51'5 9.7
2017-Jun-24 07:00N 65°15' E 011°56'5 9.4
2017-Jun-24 06:30N 65°19' E 012°01'4 7.3
2017-Jun-24 06:00N 65°23' E 011°59'4 8.6
2017-Jun-24 05:30N 65°27' E 011°57'5 9.6
2017-Jun-24 05:00N 65°32' E 012°02'5 9.5
2017-Jun-24 04:30N 65°35' E 012°09'5 9.6
2017-Jun-24 04:00N 65°39' E 012°15'5 9.6
2017-Jun-24 03:30N 65°43' E 012°23'5 9.8
2017-Jun-24 03:00N 65°46' E 012°32'3 6.7
2017-Jun-24 02:30N 65°49' E 012°38'0 0.1
2017-Jun-24 02:00N 65°49' E 012°38'3 6.0
2017-Jun-24 01:30N 65°50' E 012°32'4 7.9
2017-Jun-24 01:00N 65°48' E 012°23'5 9.5
2017-Jun-24 00:30N 65°53' E 012°22'5 9.0
2017-Jun-24 00:00N 65°57' E 012°26'5 9.5
2017-Jun-23 23:30N 66°01' E 012°33'5 9.7
2017-Jun-23 23:00N 66°05' E 012°39'4 8.9
2017-Jun-23 22:30N 66°09' E 012°39'5 8.9
2017-Jun-23 21:59N 66°14' E 012°36'4 9.2
2017-Jun-23 21:30N 66°14' E 012°25'2 4.5
2017-Jun-23 21:00N 66°14' E 012°19'0 0.0
2017-Jun-23 20:30N 66°14' E 012°19'3 5.8
2017-Jun-23 20:00N 66°15' E 012°26'5 9.9
2017-Jun-23 19:30N 66°17' E 012°38'5 9.5
2017-Jun-23 19:00N 66°19' E 012°48'5 9.3
2017-Jun-23 18:30N 66°22' E 012°57'5 9.5
2017-Jun-23 18:00N 66°27' E 012°59'5 9.3
2017-Jun-23 17:30N 66°31' E 012°58'4 8.8
2017-Jun-23 17:00N 66°35' E 013°04'5 9.5
2017-Jun-23 16:30N 66°40' E 013°07'5 9.7
2017-Jun-23 16:00N 66°44' E 013°11'5 9.9
2017-Jun-23 15:30N 66°49' E 013°15'5 9.6
2017-Jun-23 15:00N 66°53' E 013°22'9 9.3
2017-Jun-23 14:00N 66°60' E 013°38'5 9.7
2017-Jun-23 13:30N 67°02' E 013°48'5 9.9
2017-Jun-23 13:00N 67°06' E 013°57'5 9.9
2017-Jun-23 12:31N 67°10' E 014°03'510.2
2017-Jun-23 12:00N 67°14' E 014°10'5 9.6
2017-Jun-23 11:30N 67°18' E 014°18'5 9.4
2017-Jun-23 11:00N 67°22' E 014°26'5 9.1
2017-Jun-23 10:30N 67°26' E 014°32'5 9.2
2017-Jun-23 10:00N 67°30' E 014°38'5 9.5
2017-Jun-23 09:30N 67°33' E 014°47'5 9.6
2017-Jun-23 09:00N 67°35' E 014°58'4 8.6
2017-Jun-23 08:30N 67°35' E 015°09'5 9.8
2017-Jun-23 08:00N 67°32' E 015°19'5 0.7
2017-Jun-23 00:42N 67°28' E 015°30'2 8.3
2017-Jun-23 00:27N 67°30' E 015°27'4 8.9
2017-Jun-23 00:00N 67°31' E 015°17'3 5.1
2017-Jun-22 23:29N 67°32' E 015°10'4 7.9
2017-Jun-22 23:00N 67°36' E 015°12'4 7.5
2017-Jun-22 22:30N 67°37' E 015°22'0 0.4
2017-Jun-22 21:56N 67°36' E 015°22'3 6.7
2017-Jun-22 21:30N 67°38' E 015°16'0 0.0
2017-Jun-22 21:00N 67°38' E 015°16'3 6.8
2017-Jun-22 20:30N 67°39' E 015°07'0 0.9
2017-Jun-22 20:00N 67°39' E 015°07'4 8.0
2017-Jun-22 19:30N 67°38' E 014°57'5 9.2
2017-Jun-22 19:00N 67°38' E 014°45'4 8.3
2017-Jun-22 18:30N 67°39' E 014°34'4 9.0
2017-Jun-22 18:00N 67°43' E 014°31'5 9.2
2017-Jun-22 17:30N 67°47' E 014°32'5 9.3
2017-Jun-22 17:00N 67°51' E 014°40'5 9.3
2017-Jun-22 16:29N 67°55' E 014°45'5 9.5
2017-Jun-22 16:00N 67°60' E 014°48'5 9.2
2017-Jun-22 15:30N 68°05' E 014°50'5 9.5
2017-Jun-22 15:00N 68°09' E 014°53'10 9.6
2017-Jun-22 14:00N 68°19' E 014°58'5 9.4
2017-Jun-22 13:30N 68°23' E 015°04'5 9.9
2017-Jun-22 13:00N 68°27' E 015°11'4 8.2
2017-Jun-22 12:30N 68°31' E 015°10'5 9.4
2017-Jun-22 12:00N 68°36' E 015°13'5 9.8
2017-Jun-22 11:30N 68°39' E 015°23'5 9.0
2017-Jun-22 11:00N 68°43' E 015°26'5 9.7
2017-Jun-22 10:30N 68°48' E 015°25'5 9.5
2017-Jun-22 10:00N 68°53' E 015°24'3 5.6
2017-Jun-22 09:30N 68°54' E 015°17'0 0.0
2017-Jun-22 09:00N 68°54' E 015°17'0 0.0
2017-Jun-22 08:30N 68°54' E 015°17'0 0.0
2017-Jun-22 08:00N 68°54' E 015°17'0 0.0
2017-Jun-22 07:29N 68°54' E 015°17'0 0.0
2017-Jun-22 07:00N 68°54' E 015°17'0 0.0
2017-Jun-22 06:30N 68°54' E 015°17'0 0.0
2017-Jun-22 06:00N 68°54' E 015°17'0 0.0
2017-Jun-22 05:30N 68°54' E 015°17'0 0.0
2017-Jun-22 05:00N 68°54' E 015°17'0 0.0
2017-Jun-22 04:30N 68°54' E 015°17'0 0.0
2017-Jun-22 04:00N 68°54' E 015°17'0 0.0
2017-Jun-22 03:30N 68°54' E 015°17'0 0.0
2017-Jun-22 03:00N 68°54' E 015°17'0 0.0
2017-Jun-22 02:29N 68°54' E 015°17'0 0.0
2017-Jun-22 02:00N 68°54' E 015°17'0 0.0
2017-Jun-22 01:29N 68°54' E 015°17'0 0.0
2017-Jun-22 01:00N 68°54' E 015°17'0 0.0
2017-Jun-22 00:30N 68°54' E 015°17'0 0.0
2017-Jun-22 00:00N 68°54' E 015°17'0 0.0
2017-Jun-21 23:30N 68°54' E 015°17'0 0.0
2017-Jun-21 23:00N 68°54' E 015°17'0 0.0
2017-Jun-21 22:29N 68°54' E 015°17'1 1.5
2017-Jun-21 22:00N 68°54' E 015°19'4 9.1
2017-Jun-21 21:30N 68°52' E 015°30'5 9.3
2017-Jun-21 21:00N 68°56' E 015°36'4 8.7
2017-Jun-21 20:30N 68°59' E 015°46'5 8.9
2017-Jun-21 20:00N 68°58' E 015°59'5 9.2
2017-Jun-21 19:30N 68°57' E 016°11'4 8.9
2017-Jun-21 19:00N 68°54' E 016°21'4 8.8
2017-Jun-21 18:30N 68°51' E 016°31'3 6.3
2017-Jun-21 18:00N 68°49' E 016°34'1 1.5
2017-Jun-21 17:30N 68°48' E 016°33'0 0.0
2017-Jun-21 17:00N 68°48' E 016°33'0 0.0
2017-Jun-21 16:30N 68°48' E 016°33'0 0.0
2017-Jun-21 16:00N 68°48' E 016°33'0 0.0
2017-Jun-21 15:29N 68°48' E 016°33'0 0.0
2017-Jun-21 15:00N 68°48' E 016°33'0 0.0
2017-Jun-21 14:30N 68°48' E 016°33'1 0.5
2017-Jun-21 11:38N 68°49' E 016°36'6 9.5
2017-Jun-21 11:00N 68°51' E 016°51'7 0.5
2017-Jun-20 20:46N 68°48' E 016°33'0 0.0
2017-Jun-20 13:27N 68°48' E 016°33'0 0.0
2017-Jun-20 12:38N 68°48' E 016°33'0 0.0
2017-Jun-20 08:44N 68°48' E 016°33'0 0.0
2017-Jun-19 12:51N 68°48' E 016°33'0 0.0
2017-Jun-19 12:30N 68°48' E 016°33'0 0.0
2017-Jun-19 12:00N 68°48' E 016°33'0 0.0
2017-Jun-19 11:30N 68°48' E 016°33'0 0.0
2017-Jun-19 11:00N 68°48' E 016°33'0 0.0
2017-Jun-19 10:30N 68°48' E 016°33'0 0.0
2017-Jun-19 10:00N 68°48' E 016°33'0 0.0
2017-Jun-19 09:30N 68°48' E 016°33'0 0.0
2017-Jun-19 09:00N 68°48' E 016°33'0 0.0
2017-Jun-19 08:30N 68°48' E 016°33'0 0.0
2017-Jun-19 07:59N 68°48' E 016°33'0 0.0
2017-Jun-19 07:30N 68°48' E 016°33'0 0.0
2017-Jun-19 07:00N 68°48' E 016°33'0 0.0
2017-Jun-19 06:30N 68°48' E 016°33'0 0.0
2017-Jun-19 05:59N 68°48' E 016°33'0 0.0
2017-Jun-19 05:29N 68°48' E 016°33'0 0.0
2017-Jun-19 05:00N 68°48' E 016°33'0 0.0
2017-Jun-19 04:30N 68°48' E 016°33'0 0.0
2017-Jun-19 04:00N 68°48' E 016°33'0 0.0
2017-Jun-19 03:30N 68°48' E 016°33'0 0.0
2017-Jun-19 03:00N 68°48' E 016°33'0 0.0
2017-Jun-19 02:30N 68°48' E 016°33'0 0.0
2017-Jun-19 02:00N 68°48' E 016°33'0 0.0
2017-Jun-19 01:30N 68°48' E 016°33'0 0.0
2017-Jun-19 00:59N 68°48' E 016°33'0 0.0
2017-Jun-19 00:30N 68°48' E 016°33'0 0.0
2017-Jun-19 00:00N 68°48' E 016°33'0 0.0
2017-Jun-18 23:30N 68°48' E 016°33'0 0.0
2017-Jun-18 23:00N 68°48' E 016°33'0 0.8
2017-Jun-18 22:30N 68°48' E 016°34'5 9.1
2017-Jun-18 22:00N 68°45' E 016°42'4 9.0
2017-Jun-18 21:30N 68°40' E 016°39'5 9.8
2017-Jun-18 21:00N 68°36' E 016°33'4 7.9
2017-Jun-18 20:30N 68°33' E 016°24'4 9.0
2017-Jun-18 20:00N 68°32' E 016°13'510.3
2017-Jun-18 19:29N 68°28' E 016°06'510.2
2017-Jun-18 19:00N 68°23' E 015°60'5 9.1
2017-Jun-18 18:30N 68°19' E 015°53'5 9.3
2017-Jun-18 18:00N 68°16' E 015°44'5 9.6
2017-Jun-18 17:30N 68°13' E 015°34'5 9.5
2017-Jun-18 17:00N 68°10' E 015°25'5 9.4
2017-Jun-18 16:30N 68°06' E 015°18'4 8.7
2017-Jun-18 16:00N 68°01' E 015°17'1 2.4
2017-Jun-18 15:30N 68°01' E 015°20'0 0.0
2017-Jun-18 14:59N 68°01' E 015°20'5 4.6
2017-Jun-18 14:00N 67°58' E 015°12'1 1.4
2017-Jun-18 13:30N 67°57' E 015°10'3 5.6
2017-Jun-18 13:00N 68°00' E 015°09'3 6.7
2017-Jun-18 12:30N 68°01' E 014°60'5 9.8
2017-Jun-18 12:00N 67°57' E 014°50'5 9.2
2017-Jun-18 11:30N 67°53' E 014°44'5 9.4
2017-Jun-18 11:00N 67°50' E 014°36'5 9.3
2017-Jun-18 10:30N 67°45' E 014°31'5 9.6
2017-Jun-18 10:00N 67°40' E 014°31'5 9.6
2017-Jun-18 09:30N 67°36' E 014°30'510.4
2017-Jun-18 09:01N 67°31' E 014°30'510.1
2017-Jun-18 08:30N 67°26' E 014°27'5 9.3
2017-Jun-18 08:00N 67°21' E 014°22'5 9.4
2017-Jun-18 07:30N 67°17' E 014°15'5 9.4
2017-Jun-18 07:00N 67°14' E 014°09'5 9.7
2017-Jun-18 06:30N 67°09' E 014°03'5 9.5
2017-Jun-18 06:00N 67°05' E 013°56'5 9.4
2017-Jun-18 05:30N 67°02' E 013°47'5 9.3
2017-Jun-18 05:00N 66°60' E 013°37'5 8.8
2017-Jun-18 04:30N 66°56' E 013°29'4 8.5
2017-Jun-18 04:00N 66°53' E 013°23'5 9.2
2017-Jun-18 03:30N 66°49' E 013°16'5 9.5
2017-Jun-18 03:00N 66°45' E 013°12'5 9.7
2017-Jun-18 02:30N 66°40' E 013°08'5 9.5
2017-Jun-18 02:00N 66°36' E 013°04'4 8.2
2017-Jun-18 01:30N 66°32' E 012°59'5 9.2
2017-Jun-18 01:01N 66°28' E 012°59'510.1
2017-Jun-18 00:30N 66°23' E 012°58'510.1
2017-Jun-18 00:00N 66°18' E 012°56'4 8.9
2017-Jun-17 23:30N 66°13' E 012°55'2 3.4
2017-Jun-17 23:00N 66°12' E 012°58'0 0.0
2017-Jun-17 22:30N 66°12' E 012°58'0 0.0
2017-Jun-17 22:00N 66°12' E 012°58'0 0.0
2017-Jun-17 21:30N 66°12' E 012°58'0 0.0
2017-Jun-17 21:00N 66°12' E 012°58'0 0.0
2017-Jun-17 20:30N 66°12' E 012°58'0 0.0
2017-Jun-17 20:00N 66°12' E 012°58'0 0.0
2017-Jun-17 19:30N 66°12' E 012°58'0 0.0
2017-Jun-17 19:00N 66°12' E 012°58'0 0.0
2017-Jun-17 18:30N 66°12' E 012°58'0 0.0
2017-Jun-17 18:00N 66°12' E 012°58'0 0.0
2017-Jun-17 17:30N 66°12' E 012°58'0 0.0
2017-Jun-17 17:00N 66°12' E 012°58'0 0.0
2017-Jun-17 16:30N 66°12' E 012°58'0 0.0
2017-Jun-17 16:00N 66°12' E 012°58'0 0.0
2017-Jun-17 15:30N 66°12' E 012°58'0 0.0
2017-Jun-17 15:00N 66°12' E 012°58'0 0.0
2017-Jun-17 14:00N 66°12' E 012°58'3 5.1
2017-Jun-17 13:30N 66°12' E 012°52'5 9.9
2017-Jun-17 13:00N 66°07' E 012°46'510.2
2017-Jun-17 12:30N 66°04' E 012°38'510.1
2017-Jun-17 12:00N 65°60' E 012°30'510.0
2017-Jun-17 11:29N 65°55' E 012°23'510.2
2017-Jun-17 11:00N 65°50' E 012°22'5 9.9
2017-Jun-17 10:30N 65°46' E 012°19'510.2
2017-Jun-17 10:00N 65°41' E 012°15'5 9.7
2017-Jun-17 09:30N 65°36' E 012°10'4 9.0
2017-Jun-17 09:00N 65°33' E 012°04'5 9.2
2017-Jun-17 08:30N 65°29' E 011°59'4 8.0
2017-Jun-17 08:00N 65°25' E 011°58'4 8.0
2017-Jun-17 07:30N 65°21' E 012°03'5 9.4
2017-Jun-17 07:00N 65°17' E 011°58'5 9.5
2017-Jun-17 06:30N 65°13' E 011°53'5 9.3
2017-Jun-17 06:00N 65°08' E 011°50'5 9.3
2017-Jun-17 05:30N 65°04' E 011°46'5 9.3
2017-Jun-17 05:00N 65°00' E 011°38'4 9.0
2017-Jun-17 04:30N 64°57' E 011°31'5 9.3
2017-Jun-17 04:00N 64°55' E 011°22'5 9.4
2017-Jun-17 03:30N 64°51' E 011°14'5 9.5
2017-Jun-17 03:00N 64°48' E 011°06'4 9.0
2017-Jun-17 02:30N 64°45' E 010°59'5 9.0
2017-Jun-17 02:00N 64°42' E 010°51'4 9.0
2017-Jun-17 01:30N 64°38' E 010°44'5 9.0
2017-Jun-17 01:00N 64°34' E 010°38'4 8.9
2017-Jun-17 00:30N 64°30' E 010°34'4 8.7
2017-Jun-17 00:00N 64°27' E 010°27'4 8.3
2017-Jun-16 23:31N 64°23' E 010°27'4 8.1
2017-Jun-16 23:00N 64°19' E 010°25'4 8.6
2017-Jun-16 22:30N 64°16' E 010°19'4 8.7
2017-Jun-16 22:00N 64°13' E 010°12'4 9.0
2017-Jun-16 21:30N 64°09' E 010°07'5 8.9
2017-Jun-16 21:00N 64°06' E 009°59'5 9.1
2017-Jun-16 20:29N 64°03' E 009°50'4 8.2
2017-Jun-16 20:00N 63°59' E 009°47'4 8.7
2017-Jun-16 19:30N 63°55' E 009°47'4 9.0
2017-Jun-16 19:00N 63°52' E 009°41'5 9.2
2017-Jun-16 18:30N 63°48' E 009°34'3 6.2
2017-Jun-16 18:00N 63°45' E 009°36'4 7.2
2017-Jun-16 17:30N 63°46' E 009°44'1 1.4
2017-Jun-16 17:00N 63°46' E 009°46'0 0.0
2017-Jun-16 16:30N 63°46' E 009°46'0 0.0
2017-Jun-16 16:00N 63°46' E 009°46'0 0.0
2017-Jun-16 15:30N 63°46' E 009°46'0 0.0
2017-Jun-16 15:00N 63°46' E 009°46'0 0.0
2017-Jun-16 14:30N 63°46' E 009°46'0 0.0
2017-Jun-16 13:30N 63°46' E 009°46'0 0.0
2017-Jun-16 13:00N 63°46' E 009°46'0 0.0
2017-Jun-16 12:30N 63°46' E 009°46'0 0.0
2017-Jun-16 12:00N 63°46' E 009°46'0 0.0
2017-Jun-16 11:30N 63°46' E 009°46'0 0.0
2017-Jun-16 11:00N 63°46' E 009°46'0 0.0
2017-Jun-16 10:30N 63°46' E 009°46'0 0.0
2017-Jun-16 10:00N 63°46' E 009°46'0 0.0
2017-Jun-16 09:30N 63°46' E 009°46'0 0.0
2017-Jun-16 09:00N 63°46' E 009°46'0 0.0
2017-Jun-16 08:30N 63°46' E 009°46'0 0.0
2017-Jun-16 08:00N 63°46' E 009°46'0 0.0
2017-Jun-16 07:30N 63°46' E 009°46'0 0.0
2017-Jun-16 07:00N 63°46' E 009°46'0 0.0
2017-Jun-16 06:30N 63°46' E 009°46'0 0.0
2017-Jun-16 06:00N 63°46' E 009°46'0 0.0
2017-Jun-16 05:30N 63°46' E 009°46'0 0.0
2017-Jun-16 05:00N 63°46' E 009°46'0 0.0
2017-Jun-16 04:30N 63°46' E 009°46'0 0.0
2017-Jun-16 04:00N 63°46' E 009°46'0 0.0
2017-Jun-16 03:30N 63°46' E 009°46'0 0.0
2017-Jun-16 03:00N 63°46' E 009°46'0 0.0
2017-Jun-16 02:30N 63°46' E 009°46'0 0.0
2017-Jun-16 02:00N 63°46' E 009°46'0 0.0
2017-Jun-16 01:30N 63°46' E 009°46'0 0.0
2017-Jun-16 01:00N 63°46' E 009°46'0 0.0
2017-Jun-16 00:30N 63°46' E 009°46'  
Track history (hours):
 
Tides and Currents Weather Stations Pressure Air Temp Water Temp Dewpoint Dewpoint Depression Visibility Wind Speed Wind Dir Waves Ship Positions

Biotrans

Last reported at 2017-Jun-26 00:29 UTC. Time now 2017-Jun-26 00:38 UTC.
Position N 62°50' E 006°58'.

Length 55 m; draft 5.5 m.

Type: Cargo ship. MMSI: 259260000.

Date/timePositionNaut miles runAvg speedWind from/ knotsBaromVisibWave heightAir tempDewpointWater temp
2017-Jun-26 00:29N 62°50' E 006°58'0 0.0
2017-Jun-26 00:00N 62°50' E 006°58'0 0.0
2017-Jun-25 23:30N 62°50' E 006°58'0 0.0
2017-Jun-25 23:00N 62°50' E 006°58'0 0.0
2017-Jun-25 22:30N 62°50' E 006°58'0 0.4
2017-Jun-25 22:00N 62°50' E 006°58'0 0.0
2017-Jun-25 21:30N 62°50' E 006°58'0 0.1
2017-Jun-25 21:00N 62°50' E 006°58'0 0.0
2017-Jun-25 20:30N 62°50' E 006°58'0 0.0
2017-Jun-25 20:00N 62°50' E 006°58'0 0.0
2017-Jun-25 19:30N 62°50' E 006°58'2 3.9
2017-Jun-25 19:00N 62°52' E 006°57'5 9.5
2017-Jun-25 18:30N 62°56' E 006°51'4 8.7
2017-Jun-25 18:00N 62°59' E 006°57'5 9.6
2017-Jun-25 17:30N 63°01' E 007°07'5 9.7
2017-Jun-25 17:00N 63°03' E 007°17'5 9.6
2017-Jun-25 16:30N 63°05' E 007°27'5 9.9
2017-Jun-25 16:00N 63°08' E 007°35'510.0
2017-Jun-25 15:30N 63°10' E 007°45'5 9.9
2017-Jun-25 15:00N 63°13' E 007°54'1010.3
2017-Jun-25 14:00N 63°18' E 008°14'510.0
2017-Jun-25 13:30N 63°21' E 008°22'5 9.9
2017-Jun-25 13:00N 63°24' E 008°32'5 9.8
2017-Jun-25 12:30N 63°26' E 008°42'5 9.6
2017-Jun-25 12:00N 63°28' E 008°52'5 9.1
2017-Jun-25 11:30N 63°29' E 009°01'4 8.4
2017-Jun-25 10:59N 63°31' E 009°10'4 8.4
2017-Jun-25 10:30N 63°33' E 009°18'5 9.4
2017-Jun-25 10:01N 63°36' E 009°26'5 9.8
2017-Jun-25 09:30N 63°41' E 009°29'510.0
2017-Jun-25 09:00N 63°46' E 009°32'5 9.2
2017-Jun-25 08:30N 63°50' E 009°37'5 9.1
2017-Jun-25 08:00N 63°53' E 009°45'4 7.5
2017-Jun-25 07:30N 63°54' E 009°53'1 1.8
2017-Jun-25 07:00N 63°53' E 009°52'0 0.0
2017-Jun-25 06:30N 63°53' E 009°52'0 0.0
2017-Jun-25 06:00N 63°53' E 009°52'0 0.0
2017-Jun-25 05:30N 63°53' E 009°52'0 0.0
2017-Jun-25 05:00N 63°53' E 009°52'0 0.0
2017-Jun-25 04:30N 63°53' E 009°52'0 0.0
2017-Jun-25 04:00N 63°53' E 009°52'0 0.0
2017-Jun-25 03:30N 63°53' E 009°52'0 0.0
2017-Jun-25 03:00N 63°53' E 009°52'0 0.0
2017-Jun-25 02:30N 63°53' E 009°52'0 0.0
2017-Jun-25 02:00N 63°53' E 009°52'0 0.1
2017-Jun-25 01:30N 63°53' E 009°52'1 3.0
2017-Jun-25 01:00N 63°53' E 009°49'4 8.9
2017-Jun-25 00:29N 63°51' E 009°40'5 9.7
2017-Jun-25 00:00N 63°47' E 009°34'3 6.7
2017-Jun-24 23:30N 63°45' E 009°39'3 6.5
2017-Jun-24 23:00N 63°46' E 009°46'0 0.0
2017-Jun-24 22:30N 63°46' E 009°46'0 0.0
2017-Jun-24 22:00N 63°46' E 009°46'0 0.0
2017-Jun-24 21:30N 63°46' E 009°46'0 0.0
2017-Jun-24 21:00N 63°46' E 009°46'0 0.0
2017-Jun-24 20:30N 63°46' E 009°46'0 0.0
2017-Jun-24 20:00N 63°46' E 009°46'0 0.0
2017-Jun-24 19:30N 63°46' E 009°46'2 4.0
2017-Jun-24 19:00N 63°45' E 009°41'4 7.6
2017-Jun-24 18:30N 63°47' E 009°33'5 9.9
2017-Jun-24 18:00N 63°51' E 009°39'5 9.9
2017-Jun-24 17:30N 63°54' E 009°46'5 9.9
2017-Jun-24 17:00N 63°59' E 009°47'5 9.7
2017-Jun-24 16:30N 64°04' E 009°48'5 9.5
2017-Jun-24 16:00N 64°09' E 009°51'5 9.6
2017-Jun-24 15:29N 64°13' E 009°57'5 9.6
2017-Jun-24 15:00N 64°17' E 010°03'10 9.6
2017-Jun-24 14:00N 64°25' E 010°16'5 9.3
2017-Jun-24 13:30N 64°28' E 010°22'5 9.4
2017-Jun-24 13:00N 64°32' E 010°29'5 9.9
2017-Jun-24 12:30N 64°36' E 010°37'510.1
2017-Jun-24 12:00N 64°39' E 010°45'510.0
2017-Jun-24 11:30N 64°43' E 010°54'510.2
2017-Jun-24 11:00N 64°46' E 011°03'5 9.8
2017-Jun-24 10:30N 64°50' E 011°10'4 8.7
2017-Jun-24 10:00N 64°53' E 011°18'5 9.1
2017-Jun-24 09:30N 64°56' E 011°26'510.1
2017-Jun-24 09:00N 64°59' E 011°35'5 9.2
2017-Jun-24 08:30N 65°02' E 011°43'5 9.1
2017-Jun-24 08:00N 65°06' E 011°48'5 9.6
2017-Jun-24 07:30N 65°11' E 011°51'5 9.7
2017-Jun-24 07:00N 65°15' E 011°56'5 9.4
2017-Jun-24 06:30N 65°19' E 012°01'4 7.3
2017-Jun-24 06:00N 65°23' E 011°59'4 8.6
2017-Jun-24 05:30N 65°27' E 011°57'5 9.6
2017-Jun-24 05:00N 65°32' E 012°02'5 9.5
2017-Jun-24 04:30N 65°35' E 012°09'5 9.6
2017-Jun-24 04:00N 65°39' E 012°15'5 9.6
2017-Jun-24 03:30N 65°43' E 012°23'5 9.8
2017-Jun-24 03:00N 65°46' E 012°32'3 6.7
2017-Jun-24 02:30N 65°49' E 012°38'0 0.1
2017-Jun-24 02:00N 65°49' E 012°38'3 6.0
2017-Jun-24 01:30N 65°50' E 012°32'4 7.9
2017-Jun-24 01:00N 65°48' E 012°23'5 9.5
2017-Jun-24 00:30N 65°53' E 012°22'5 9.0
2017-Jun-24 00:00N 65°57' E 012°26'5 9.5
2017-Jun-23 23:30N 66°01' E 012°33'5 9.7
2017-Jun-23 23:00N 66°05' E 012°39'4 8.9
2017-Jun-23 22:30N 66°09' E 012°39'5 8.9
2017-Jun-23 21:59N 66°14' E 012°36'4 9.2
2017-Jun-23 21:30N 66°14' E 012°25'2 4.5
2017-Jun-23 21:00N 66°14' E 012°19'0 0.0
2017-Jun-23 20:30N 66°14' E 012°19'3 5.8
2017-Jun-23 20:00N 66°15' E 012°26'5 9.9
2017-Jun-23 19:30N 66°17' E 012°38'5 9.5
2017-Jun-23 19:00N 66°19' E 012°48'5 9.3
2017-Jun-23 18:30N 66°22' E 012°57'5 9.5
2017-Jun-23 18:00N 66°27' E 012°59'5 9.3
2017-Jun-23 17:30N 66°31' E 012°58'4 8.8
2017-Jun-23 17:00N 66°35' E 013°04'5 9.5
2017-Jun-23 16:30N 66°40' E 013°07'5 9.7
2017-Jun-23 16:00N 66°44' E 013°11'5 9.9
2017-Jun-23 15:30N 66°49' E 013°15'5 9.6
2017-Jun-23 15:00N 66°53' E 013°22'9 9.3
2017-Jun-23 14:00N 66°60' E 013°38'5 9.7
2017-Jun-23 13:30N 67°02' E 013°48'5 9.9
2017-Jun-23 13:00N 67°06' E 013°57'5 9.9
2017-Jun-23 12:31N 67°10' E 014°03'510.2
2017-Jun-23 12:00N 67°14' E 014°10'5 9.6
2017-Jun-23 11:30N 67°18' E 014°18'5 9.4
2017-Jun-23 11:00N 67°22' E 014°26'5 9.1
2017-Jun-23 10:30N 67°26' E 014°32'5 9.2
2017-Jun-23 10:00N 67°30' E 014°38'5 9.5
2017-Jun-23 09:30N 67°33' E 014°47'5 9.6
2017-Jun-23 09:00N 67°35' E 014°58'4 8.6
2017-Jun-23 08:30N 67°35' E 015°09'5 9.8
2017-Jun-23 08:00N 67°32' E 015°19'5 0.7
2017-Jun-23 00:42N 67°28' E 015°30'2 8.3
2017-Jun-23 00:27N 67°30' E 015°27'4 8.9
2017-Jun-23 00:00N 67°31' E 015°17'3 5.1
2017-Jun-22 23:29N 67°32' E 015°10'4 7.9
2017-Jun-22 23:00N 67°36' E 015°12'4 7.5
2017-Jun-22 22:30N 67°37' E 015°22'0 0.4
2017-Jun-22 21:56N 67°36' E 015°22'3 6.7
2017-Jun-22 21:30N 67°38' E 015°16'0 0.0
2017-Jun-22 21:00N 67°38' E 015°16'3 6.8
2017-Jun-22 20:30N 67°39' E 015°07'0 0.9
2017-Jun-22 20:00N 67°39' E 015°07'4 8.0
2017-Jun-22 19:30N 67°38' E 014°57'5 9.2
2017-Jun-22 19:00N 67°38' E 014°45'4 8.3
2017-Jun-22 18:30N 67°39' E 014°34'4 9.0
2017-Jun-22 18:00N 67°43' E 014°31'5 9.2
2017-Jun-22 17:30N 67°47' E 014°32'5 9.3
2017-Jun-22 17:00N 67°51' E 014°40'5 9.3
2017-Jun-22 16:29N 67°55' E 014°45'5 9.5
2017-Jun-22 16:00N 67°60' E 014°48'5 9.2
2017-Jun-22 15:30N 68°05' E 014°50'5 9.5
2017-Jun-22 15:00N 68°09' E 014°53'10 9.6
2017-Jun-22 14:00N 68°19' E 014°58'5 9.4
2017-Jun-22 13:30N 68°23' E 015°04'5 9.9
2017-Jun-22 13:00N 68°27' E 015°11'4 8.2
2017-Jun-22 12:30N 68°31' E 015°10'5 9.4
2017-Jun-22 12:00N 68°36' E 015°13'5 9.8
2017-Jun-22 11:30N 68°39' E 015°23'5 9.0
2017-Jun-22 11:00N 68°43' E 015°26'5 9.7
2017-Jun-22 10:30N 68°48' E 015°25'5 9.5
2017-Jun-22 10:00N 68°53' E 015°24'3 5.6
2017-Jun-22 09:30N 68°54' E 015°17'0 0.0
2017-Jun-22 09:00N 68°54' E 015°17'0 0.0
2017-Jun-22 08:30N 68°54' E 015°17'0 0.0
2017-Jun-22 08:00N 68°54' E 015°17'0 0.0
2017-Jun-22 07:29N 68°54' E 015°17'0 0.0
2017-Jun-22 07:00N 68°54' E 015°17'0 0.0
2017-Jun-22 06:30N 68°54' E 015°17'0 0.0
2017-Jun-22 06:00N 68°54' E 015°17'0 0.0
2017-Jun-22 05:30N 68°54' E 015°17'0 0.0
2017-Jun-22 05:00N 68°54' E 015°17'0 0.0
2017-Jun-22 04:30N 68°54' E 015°17'0 0.0
2017-Jun-22 04:00N 68°54' E 015°17'0 0.0
2017-Jun-22 03:30N 68°54' E 015°17'0 0.0
2017-Jun-22 03:00N 68°54' E 015°17'0 0.0
2017-Jun-22 02:29N 68°54' E 015°17'0 0.0
2017-Jun-22 02:00N 68°54' E 015°17'0 0.0
2017-Jun-22 01:29N 68°54' E 015°17'0 0.0
2017-Jun-22 01:00N 68°54' E 015°17'0 0.0
2017-Jun-22 00:30N 68°54' E 015°17'0 0.0
2017-Jun-22 00:00N 68°54' E 015°17'0 0.0
2017-Jun-21 23:30N 68°54' E 015°17'0 0.0
2017-Jun-21 23:00N 68°54' E 015°17'0 0.0
2017-Jun-21 22:29N 68°54' E 015°17'1 1.5
2017-Jun-21 22:00N 68°54' E 015°19'4 9.1
2017-Jun-21 21:30N 68°52' E 015°30'5 9.3
2017-Jun-21 21:00N 68°56' E 015°36'4 8.7
2017-Jun-21 20:30N 68°59' E 015°46'5 8.9
2017-Jun-21 20:00N 68°58' E 015°59'5 9.2
2017-Jun-21 19:30N 68°57' E 016°11'4 8.9
2017-Jun-21 19:00N 68°54' E 016°21'4 8.8
2017-Jun-21 18:30N 68°51' E 016°31'3 6.3
2017-Jun-21 18:00N 68°49' E 016°34'1 1.5
2017-Jun-21 17:30N 68°48' E 016°33'0 0.0
2017-Jun-21 17:00N 68°48' E 016°33'0 0.0
2017-Jun-21 16:30N 68°48' E 016°33'0 0.0
2017-Jun-21 16:00N 68°48' E 016°33'0 0.0
2017-Jun-21 15:29N 68°48' E 016°33'0 0.0
2017-Jun-21 15:00N 68°48' E 016°33'0 0.0
2017-Jun-21 14:30N 68°48' E 016°33'1 0.5
2017-Jun-21 11:38N 68°49' E 016°36'6 9.5
2017-Jun-21 11:00N 68°51' E 016°51'7 0.5
2017-Jun-20 20:46N 68°48' E 016°33'0 0.0
2017-Jun-20 13:27N 68°48' E 016°33'0 0.0
2017-Jun-20 12:38N 68°48' E 016°33'0 0.0
2017-Jun-20 08:44N 68°48' E 016°33'0 0.0
2017-Jun-19 12:51N 68°48' E 016°33'0 0.0
2017-Jun-19 12:30N 68°48' E 016°33'0 0.0
2017-Jun-19 12:00N 68°48' E 016°33'0 0.0
2017-Jun-19 11:30N 68°48' E 016°33'0 0.0
2017-Jun-19 11:00N 68°48' E 016°33'0 0.0
2017-Jun-19 10:30N 68°48' E 016°33'0 0.0
2017-Jun-19 10:00N 68°48' E 016°33'0 0.0
2017-Jun-19 09:30N 68°48' E 016°33'0 0.0
2017-Jun-19 09:00N 68°48' E 016°33'0 0.0
2017-Jun-19 08:30N 68°48' E 016°33'0 0.0
2017-Jun-19 07:59N 68°48' E 016°33'0 0.0
2017-Jun-19 07:30N 68°48' E 016°33'0 0.0
2017-Jun-19 07:00N 68°48' E 016°33'0 0.0
2017-Jun-19 06:30N 68°48' E 016°33'0 0.0
2017-Jun-19 05:59N 68°48' E 016°33'0 0.0
2017-Jun-19 05:29N 68°48' E 016°33'0 0.0
2017-Jun-19 05:00N 68°48' E 016°33'0 0.0
2017-Jun-19 04:30N 68°48' E 016°33'0 0.0
2017-Jun-19 04:00N 68°48' E 016°33'0 0.0
2017-Jun-19 03:30N 68°48' E 016°33'0 0.0
2017-Jun-19 03:00N 68°48' E 016°33'0 0.0
2017-Jun-19 02:30N 68°48' E 016°33'0 0.0
2017-Jun-19 02:00N 68°48' E 016°33'0 0.0
2017-Jun-19 01:30N 68°48' E 016°33'0 0.0
2017-Jun-19 00:59N 68°48' E 016°33'0 0.0
2017-Jun-19 00:30N 68°48' E 016°33'0 0.0
2017-Jun-19 00:00N 68°48' E 016°33'0 0.0
2017-Jun-18 23:30N 68°48' E 016°33'0 0.0
2017-Jun-18 23:00N 68°48' E 016°33'0 0.8
2017-Jun-18 22:30N 68°48' E 016°34'5 9.1
2017-Jun-18 22:00N 68°45' E 016°42'4 9.0
2017-Jun-18 21:30N 68°40' E 016°39'5 9.8
2017-Jun-18 21:00N 68°36' E 016°33'4 7.9
2017-Jun-18 20:30N 68°33' E 016°24'4 9.0
2017-Jun-18 20:00N 68°32' E 016°13'510.3
2017-Jun-18 19:29N 68°28' E 016°06'510.2
2017-Jun-18 19:00N 68°23' E 015°60'5 9.1
2017-Jun-18 18:30N 68°19' E 015°53'5 9.3
2017-Jun-18 18:00N 68°16' E 015°44'5 9.6
2017-Jun-18 17:30N 68°13' E 015°34'5 9.5
2017-Jun-18 17:00N 68°10' E 015°25'5 9.4
2017-Jun-18 16:30N 68°06' E 015°18'4 8.7
2017-Jun-18 16:00N 68°01' E 015°17'1 2.4
2017-Jun-18 15:30N 68°01' E 015°20'0 0.0
2017-Jun-18 14:59N 68°01' E 015°20'5 4.6
2017-Jun-18 14:00N 67°58' E 015°12'1 1.4
2017-Jun-18 13:30N 67°57' E 015°10'3 5.6
2017-Jun-18 13:00N 68°00' E 015°09'3 6.7
2017-Jun-18 12:30N 68°01' E 014°60'5 9.8
2017-Jun-18 12:00N 67°57' E 014°50'5 9.2
2017-Jun-18 11:30N 67°53' E 014°44'5 9.4
2017-Jun-18 11:00N 67°50' E 014°36'5 9.3
2017-Jun-18 10:30N 67°45' E 014°31'5 9.6
2017-Jun-18 10:00N 67°40' E 014°31'5 9.6
2017-Jun-18 09:30N 67°36' E 014°30'510.4
2017-Jun-18 09:01N 67°31' E 014°30'510.1
2017-Jun-18 08:30N 67°26' E 014°27'5 9.3
2017-Jun-18 08:00N 67°21' E 014°22'5 9.4
2017-Jun-18 07:30N 67°17' E 014°15'5 9.4
2017-Jun-18 07:00N 67°14' E 014°09'5 9.7
2017-Jun-18 06:30N 67°09' E 014°03'5 9.5
2017-Jun-18 06:00N 67°05' E 013°56'5 9.4
2017-Jun-18 05:30N 67°02' E 013°47'5 9.3
2017-Jun-18 05:00N 66°60' E 013°37'5 8.8
2017-Jun-18 04:30N 66°56' E 013°29'4 8.5
2017-Jun-18 04:00N 66°53' E 013°23'5 9.2
2017-Jun-18 03:30N 66°49' E 013°16'5 9.5
2017-Jun-18 03:00N 66°45' E 013°12'5 9.7
2017-Jun-18 02:30N 66°40' E 013°08'5 9.5
2017-Jun-18 02:00N 66°36' E 013°04'4 8.2
2017-Jun-18 01:30N 66°32' E 012°59'5 9.2
2017-Jun-18 01:01N 66°28' E 012°59'510.1
2017-Jun-18 00:30N 66°23' E 012°58'510.1
2017-Jun-18 00:00N 66°18' E 012°56'4 8.9
2017-Jun-17 23:30N 66°13' E 012°55'2 3.4
2017-Jun-17 23:00N 66°12' E 012°58'0 0.0
2017-Jun-17 22:30N 66°12' E 012°58'0 0.0
2017-Jun-17 22:00N 66°12' E 012°58'0 0.0
2017-Jun-17 21:30N 66°12' E 012°58'0 0.0
2017-Jun-17 21:00N 66°12' E 012°58'0 0.0
2017-Jun-17 20:30N 66°12' E 012°58'0 0.0
2017-Jun-17 20:00N 66°12' E 012°58'0 0.0
2017-Jun-17 19:30N 66°12' E 012°58'0 0.0
2017-Jun-17 19:00N 66°12' E 012°58'0 0.0
2017-Jun-17 18:30N 66°12' E 012°58'0 0.0
2017-Jun-17 18:00N 66°12' E 012°58'0 0.0
2017-Jun-17 17:30N 66°12' E 012°58'0 0.0
2017-Jun-17 17:00N 66°12' E 012°58'0 0.0
2017-Jun-17 16:30N 66°12' E 012°58'0 0.0
2017-Jun-17 16:00N 66°12' E 012°58'0 0.0
2017-Jun-17 15:30N 66°12' E 012°58'0 0.0
2017-Jun-17 15:00N 66°12' E 012°58'0 0.0
2017-Jun-17 14:00N 66°12' E 012°58'3 5.1
2017-Jun-17 13:30N 66°12' E 012°52'5 9.9
2017-Jun-17 13:00N 66°07' E 012°46'510.2
2017-Jun-17 12:30N 66°04' E 012°38'510.1
2017-Jun-17 12:00N 65°60' E 012°30'510.0
2017-Jun-17 11:29N 65°55' E 012°23'510.2
2017-Jun-17 11:00N 65°50' E 012°22'5 9.9
2017-Jun-17 10:30N 65°46' E 012°19'510.2
2017-Jun-17 10:00N 65°41' E 012°15'5 9.7
2017-Jun-17 09:30N 65°36' E 012°10'4 9.0
2017-Jun-17 09:00N 65°33' E 012°04'5 9.2
2017-Jun-17 08:30N 65°29' E 011°59'4 8.0
2017-Jun-17 08:00N 65°25' E 011°58'4 8.0
2017-Jun-17 07:30N 65°21' E 012°03'5 9.4
2017-Jun-17 07:00N 65°17' E 011°58'5 9.5
2017-Jun-17 06:30N 65°13' E 011°53'5 9.3
2017-Jun-17 06:00N 65°08' E 011°50'5 9.3
2017-Jun-17 05:30N 65°04' E 011°46'5 9.3
2017-Jun-17 05:00N 65°00' E 011°38'4 9.0
2017-Jun-17 04:30N 64°57' E 011°31'5 9.3
2017-Jun-17 04:00N 64°55' E 011°22'5 9.4
2017-Jun-17 03:30N 64°51' E 011°14'5 9.5
2017-Jun-17 03:00N 64°48' E 011°06'4 9.0
2017-Jun-17 02:30N 64°45' E 010°59'5 9.0
2017-Jun-17 02:00N 64°42' E 010°51'4 9.0
2017-Jun-17 01:30N 64°38' E 010°44'5 9.0
2017-Jun-17 01:00N 64°34' E 010°38'4 8.9
2017-Jun-17 00:30N 64°30' E 010°34'4 8.7
2017-Jun-17 00:00N 64°27' E 010°27'4 8.3
2017-Jun-16 23:31N 64°23' E 010°27'4 8.1
2017-Jun-16 23:00N 64°19' E 010°25'4 8.6
2017-Jun-16 22:30N 64°16' E 010°19'4 8.7
2017-Jun-16 22:00N 64°13' E 010°12'4 9.0
2017-Jun-16 21:30N 64°09' E 010°07'5 8.9
2017-Jun-16 21:00N 64°06' E 009°59'5 9.1
2017-Jun-16 20:29N 64°03' E 009°50'4 8.2
2017-Jun-16 20:00N 63°59' E 009°47'4 8.7
2017-Jun-16 19:30N 63°55' E 009°47'4 9.0
2017-Jun-16 19:00N 63°52' E 009°41'5 9.2
2017-Jun-16 18:30N 63°48' E 009°34'3 6.2
2017-Jun-16 18:00N 63°45' E 009°36'4 7.2
2017-Jun-16 17:30N 63°46' E 009°44'1 1.4
2017-Jun-16 17:00N 63°46' E 009°46'0 0.0
2017-Jun-16 16:30N 63°46' E 009°46'0 0.0
2017-Jun-16 16:00N 63°46' E 009°46'0 0.0
2017-Jun-16 15:30N 63°46' E 009°46'0 0.0
2017-Jun-16 15:00N 63°46' E 009°46'0 0.0
2017-Jun-16 14:30N 63°46' E 009°46'0 0.0
2017-Jun-16 13:30N 63°46' E 009°46'0 0.0
2017-Jun-16 13:00N 63°46' E 009°46'0 0.0
2017-Jun-16 12:30N 63°46' E 009°46'0 0.0
2017-Jun-16 12:00N 63°46' E 009°46'0 0.0
2017-Jun-16 11:30N 63°46' E 009°46'0 0.0
2017-Jun-16 11:00N 63°46' E 009°46'0 0.0
2017-Jun-16 10:30N 63°46' E 009°46'0 0.0
2017-Jun-16 10:00N 63°46' E 009°46'0 0.0
2017-Jun-16 09:30N 63°46' E 009°46'0 0.0
2017-Jun-16 09:00N 63°46' E 009°46'0 0.0
2017-Jun-16 08:30N 63°46' E 009°46'0 0.0
2017-Jun-16 08:00N 63°46' E 009°46'0 0.0
2017-Jun-16 07:30N 63°46' E 009°46'0 0.0
2017-Jun-16 07:00N 63°46' E 009°46'0 0.0
2017-Jun-16 06:30N 63°46' E 009°46'0 0.0
2017-Jun-16 06:00N 63°46' E 009°46'0 0.0
2017-Jun-16 05:30N 63°46' E 009°46'0 0.0
2017-Jun-16 05:00N 63°46' E 009°46'0 0.0
2017-Jun-16 04:30N 63°46' E 009°46'0 0.0
2017-Jun-16 04:00N 63°46' E 009°46'0 0.0
2017-Jun-16 03:30N 63°46' E 009°46'0 0.0
2017-Jun-16 03:00N 63°46' E 009°46'0 0.0
2017-Jun-16 02:30N 63°46' E 009°46'0 0.0
2017-Jun-16 02:00N 63°46' E 009°46'0 0.0
2017-Jun-16 01:30N 63°46' E 009°46'0 0.0
2017-Jun-16 01:00N 63°46' E 009°46'0 0.0
2017-Jun-16 00:30N 63°46' E 009°46'  

Dump ship's entire track history